EST,Max TemperatureF,Mean TemperatureF,Min TemperatureF,Max Dew PointF,MeanDew PointF,Min DewpointF,Max Humidity, Mean Humidity, Min Humidity, Max Sea Level PressureIn, Mean Sea Level PressureIn, Min Sea Level PressureIn, Max VisibilityMiles, Mean VisibilityMiles, Min VisibilityMiles, Max Wind SpeedMPH, Mean Wind SpeedMPH, Max Gust SpeedMPH,PrecipitationIn, CloudCover, Events, WindDirDegrees
2012-11-1,53,40,26,30,25,19,76,51,26,29.92,29.87,29.84,10,10,10,20,6,23,0.00,4,,282
2012-11-2,51,42,32,34,30,27,89,66,42,30.14,30.03,29.87,10,10,10,14,7,17,0.00,1,,3
2012-11-3,40,37,33,34,32,29,96,88,79,30.21,30.17,30.13,10,10,5,13,5,14,0.08,6,Rain,58
2012-11-4,46,36,25,33,30,25,100,79,58,30.25,30.21,30.18,10,9,6,8,2,12,0.00,4,,20
2012-11-5,45,33,21,29,25,20,100,77,53,30.21,30.18,30.12,10,7,0,13,4,15,0.00,0,Fog,64
2012-11-6,47,35,23,37,30,22,100,75,49,30.12,30.02,29.92,10,6,2,9,2,12,0.08,4,Rain,211
2012-11-7,49,41,33,38,36,32,100,83,65,30.17,30.04,29.90,8,4,0,10,4,13,0.03,6,Fog-Rain,39
2012-11-8,45,37,29,40,32,28,100,83,65,30.26,30.20,30.15,10,4,0,8,2,10,0.00,7,Fog,232
2012-11-9,62,46,30,43,37,30,100,75,49,30.17,30.10,30.01,10,7,2,17,6,24,0.00,0,,160
2012-11-10,70,58,45,48,43,40,76,58,40,30.07,30.04,29.99,10,10,10,18,8,26,0.00,1,,193
2012-11-11,68,60,52,50,45,42,62,54,45,30.07,29.98,29.89,10,10,8,26,14,39,0.01,4,Rain,199
2012-11-12,52,42,31,50,33,21,100,76,52,30.39,30.13,29.95,10,8,2,22,11,29,0.48,6,Rain-Snow,284
2012-11-13,39,32,24,25,21,19,92,68,44,30.53,30.49,30.40,10,10,10,12,3,13,0.00,0,,294
2012-11-14,42,33,24,27,24,21,88,70,51,30.57,30.50,30.42,10,10,6,12,3,14,0.00,0,,106
2012-11-15,46,34,22,30,25,20,96,73,49,30.43,30.39,30.35,10,6,2,5,0,20,0.00,0,,-1
2012-11-16,51,37,22,33,25,21,100,68,36,30.51,30.46,30.39,10,5,2,7,1,22,0.00,0,,82
2012-11-17,54,39,24,34,29,23,100,71,41,30.59,30.52,30.48,10,7,2,12,4,13,0.00,0,,112
2012-11-18,58,42,26,33,30,25,92,63,33,30.47,30.42,30.36,10,9,6,9,4,12,0.00,0,,97
2012-11-19,57,44,31,37,33,28,92,68,43,30.35,30.27,30.16,10,10,8,8,1,10,T,2,,193
2012-11-20,56,52,47,44,41,37,86,71,56,30.18,30.12,30.07,10,10,6,7,2,9,T,8,,346
2012-11-21,58,47,36,45,40,36,100,81,62,30.29,30.21,30.17,7,2,0,6,1,9,T,1,Fog-Snow,241
2012-11-22,61,49,36,50,40,37,100,74,47,30.18,30.09,29.91,10,5,1,18,6,25,0.11,1,Rain,210
2012-11-23,53,40,26,52,29,17,82,70,58,30.25,30.07,29.90,10,10,6,30,16,45,0.01,6,Rain,302
2012-11-24,31,28,25,20,17,15,81,70,58,30.29,30.22,30.08,10,10,10,13,6,16,0.00,6,,271
2012-11-25,45,36,26,28,24,20,81,65,49,30.08,29.97,29.90,10,10,10,14,6,18,0.00,1,,243
2012-11-26,42,34,26,29,26,22,92,72,52,30.34,30.23,30.07,10,8,2,14,5,17,T,5,Snow,357
2012-11-27,36,28,20,27,20,17,88,72,56,30.43,30.36,30.32,10,10,9,9,3,13,0.00,1,,315
2012-11-28,43,33,22,23,21,18,81,62,43,30.43,30.37,30.32,10,10,9,12,3,16,0.00,1,,265
2012-11-29,49,37,24,30,26,20,81,64,46,30.36,30.26,30.15,10,10,9,16,5,23,0.00,0,,180
2012-11-30,56,45,34,34,30,27,82,60,38,30.16,30.13,30.08,10,10,10,14,5,18,0.00,1,,215